Time;durP1;ratioP1;P1;durP2;ratioP2;P2;SDS_P1;SDS_P2;PMS_P1;PMS_P2;Temp;Humidity;BMP_temperature;BMP_pressure;BME280_temperature;BME280_humidity;BME280_pressure;Samples;Min_cycle;Max_cycle;Signal;HPM_P1;HPM_P2
2021/11/04 00:00:15;;;;;;;224.25;33.28;;;;;;;16.67;100.00;100244.91;4919508;29;20040;-52
2021/11/04 00:02:42;;;;;;;129.33;30.17;;;;;;;16.87;100.00;100247.06;4919600;29;20046;-55
2021/11/04 00:05:08;;;;;;;82.47;30.80;;;;;;;16.89;100.00;100243.03;4936285;29;20285;-52
2021/11/04 00:07:34;;;;;;;380.63;39.85;;;;;;;16.78;100.00;100242.09;4919400;29;20122;-54
2021/11/04 00:10:00;;;;;;;87.20;29.98;;;;;;;16.91;100.00;100235.47;4936427;29;20127;-54
2021/11/04 00:12:25;;;;;;;101.63;31.00;;;;;;;16.87;100.00;100242.47;4934953;29;20051;-53
2021/11/04 00:14:51;;;;;;;116.03;31.48;;;;;;;16.81;100.00;100243.47;4936218;29;20091;-54
2021/11/04 00:17:17;;;;;;;151.47;35.40;;;;;;;16.72;100.00;100236.88;4919599;29;20478;-53
2021/11/04 00:19:43;;;;;;;367.63;40.08;;;;;;;16.76;100.00;100243.44;4936178;29;20050;-53
2021/11/04 00:22:09;;;;;;;192.30;35.63;;;;;;;16.66;100.00;100238.72;4936551;29;20043;-52
2021/11/04 00:24:36;;;;;;;172.80;34.00;;;;;;;16.74;100.00;100238.25;4936219;29;20035;-51
2021/11/04 00:27:02;;;;;;;116.22;31.27;;;;;;;16.69;100.00;100232.81;4936027;29;20545;-48
2021/11/04 00:29:27;;;;;;;294.83;34.25;;;;;;;16.37;100.00;100232.66;4936109;29;20035;-53
2021/11/04 00:31:53;;;;;;;327.30;38.20;;;;;;;16.45;100.00;100234.91;4935431;29;20055;-50
2021/11/04 00:34:19;;;;;;;308.92;33.83;;;;;;;16.26;100.00;100234.41;4935769;29;20118;-50
2021/11/04 00:36:45;;;;;;;203.60;35.00;;;;;;;16.35;100.00;100238.28;4936129;29;20052;-54
2021/11/04 00:39:11;;;;;;;144.80;33.97;;;;;;;16.53;100.00;100239.06;4918905;29;20075;-53
2021/11/04 00:41:39;;;;;;;283.52;37.75;;;;;;;16.55;100.00;100232.38;4935703;29;20612;-53
2021/11/04 00:44:04;;;;;;;167.45;35.35;;;;;;;16.66;100.00;100245.97;4935764;29;20046;-52
2021/11/04 00:46:32;;;;;;;202.68;31.80;;;;;;;16.72;100.00;100236.88;4935838;29;20051;-52
2021/11/04 00:48:58;;;;;;;163.65;32.00;;;;;;;16.60;100.00;100234.28;4918892;29;20040;-56
2021/11/04 00:51:24;;;;;;;101.35;30.67;;;;;;;16.66;100.00;100227.09;4935669;29;20497;-55
2021/11/04 00:53:50;;;;;;;125.90;32.65;;;;;;;16.55;100.00;100231.53;4936291;29;20048;-50
2021/11/04 00:56:15;;;;;;;92.20;28.40;;;;;;;16.61;100.00;100230.56;4935446;29;20040;-53
2021/11/04 00:58:41;;;;;;;96.70;30.67;;;;;;;16.53;100.00;100236.38;4935673;29;20099;-54
2021/11/04 01:01:07;;;;;;;163.57;28.95;;;;;;;16.47;100.00;100233.63;4935527;29;20270;-51
2021/11/04 01:03:32;;;;;;;217.17;31.17;;;;;;;16.24;100.00;100233.81;4935575;29;20067;-52
2021/11/04 01:05:58;;;;;;;80.30;27.60;;;;;;;16.26;100.00;100231.69;4935196;29;20270;-55
2021/11/04 01:08:24;;;;;;;153.98;26.70;;;;;;;16.08;100.00;100230.91;4935369;29;20059;-52
2021/11/04 01:10:50;;;;;;;109.22;27.45;;;;;;;16.37;100.00;100224.56;4918740;29;20059;-53
2021/11/04 01:13:16;;;;;;;125.75;27.35;;;;;;;16.35;100.00;100222.09;4918333;29;20048;-50
2021/11/04 01:15:42;;;;;;;87.85;26.52;;;;;;;16.41;100.00;100226.53;4933837;29;20044;-50
2021/11/04 01:18:08;;;;;;;77.22;26.52;;;;;;;16.52;100.00;100230.16;4935348;29;20043;-55
2021/11/04 01:20:34;;;;;;;98.05;26.23;;;;;;;16.22;100.00;100230.56;4935124;29;20050;-52
2021/11/04 01:22:59;;;;;;;106.50;27.90;;;;;;;16.03;100.00;100225.44;4935661;29;20511;-55
2021/11/04 01:25:25;;;;;;;75.70;24.13;;;;;;;16.21;100.00;100232.44;4935837;29;20040;-52
2021/11/04 01:27:50;;;;;;;58.30;23.13;;;;;;;16.37;100.00;100235.34;4934936;29;20411;-55
2021/11/04 01:30:16;;;;;;;51.20;22.67;;;;;;;16.26;100.00;100224.44;4935708;29;20136;-50
2021/11/04 01:32:42;;;;;;;60.83;21.23;;;;;;;16.39;100.00;100228.66;4935611;29;20055;-55
2021/11/04 01:35:09;;;;;;;58.10;20.23;;;;;;;16.42;100.00;100219.22;4935338;29;20130;-51
2021/11/04 01:37:35;;;;;;;39.95;19.73;;;;;;;16.35;100.00;100224.78;4934880;29;20039;-53
2021/11/04 01:40:01;;;;;;;;;;;;;;;16.51;100.00;100230.41;4935186;29;20040;-50
2021/11/04 01:42:26;;;;;;;40.20;19.00;;;;;;;16.60;100.00;100231.59;4934877;29;20009;-51
2021/11/04 01:44:52;;;;;;;106.65;21.67;;;;;;;16.61;100.00;100222.47;4937151;29;20048;-50
2021/11/04 01:47:17;;;;;;;44.42;19.23;;;;;;;16.63;100.00;100228.41;4937697;29;20479;-52
2021/11/04 01:49:43;;;;;;;71.07;20.83;;;;;;;16.37;100.00;100214.56;4938550;29;20450;-50
2021/11/04 01:52:10;;;;;;;59.60;20.67;;;;;;;16.38;100.00;100207.31;4938481;29;20803;-51
2021/11/04 01:54:36;;;;;;;36.10;19.65;;;;;;;16.41;100.00;100223.00;4921508;29;20044;-51
2021/11/04 01:57:03;;;;;;;37.13;20.13;;;;;;;16.39;100.00;100211.63;4938492;29;20478;-52
2021/11/04 01:59:28;;;;;;;43.28;19.38;;;;;;;16.29;100.00;100201.53;4922176;29;20119;-55
2021/11/04 02:02:00;;;;;;;40.27;18.97;;;;;;;16.30;100.00;100206.69;4922117;29;20482;-53
2021/11/04 02:04:48;;;;;;;39.30;18.35;;;;;;;16.35;100.00;100205.91;4938696;29;20047;-48
2021/11/04 02:07:37;;;;;;;41.17;18.48;;;;;;;16.28;100.00;100203.41;4928114;29;20116;-54
2021/11/04 02:10:12;;;;;;;34.67;17.98;;;;;;;16.36;100.00;100198.66;4938645;29;20048;-51
2021/11/04 02:12:48;;;;;;;30.73;18.40;;;;;;;16.39;100.00;100203.53;4938746;29;20123;-53
2021/11/04 02:15:15;;;;;;;31.30;17.80;;;;;;;16.46;100.00;100205.00;4938828;29;20075;-55
2021/11/04 02:17:43;;;;;;;26.63;16.38;;;;;;;16.57;100.00;100208.63;4938925;29;20055;-59
2021/11/04 02:20:11;;;;;;;30.35;16.38;;;;;;;16.56;100.00;100209.69;4939112;29;20047;-59
2021/11/04 02:22:51;;;;;;;24.83;14.90;;;;;;;16.53;100.00;100215.59;4938879;29;20053;-59
2021/11/04 02:25:20;;;;;;;27.00;15.38;;;;;;;16.42;100.00;100209.25;4938806;29;20040;-59
2021/11/04 02:27:51;;;;;;;30.52;15.85;;;;;;;16.46;100.00;100214.97;4938810;29;20397;-59
2021/11/04 02:30:19;;;;;;;27.95;15.68;;;;;;;16.56;100.00;100207.00;4939519;29;20042;-58
2021/11/04 02:32:45;;;;;;;32.05;18.13;;;;;;;16.64;100.00;100211.16;4939846;29;20051;-58
2021/11/04 02:35:12;;;;;;;25.15;16.02;;;;;;;16.38;100.00;100213.53;4938919;29;20051;-59
2021/11/04 02:37:39;;;;;;;23.40;14.70;;;;;;;16.46;100.00;100215.78;4938809;29;20043;-59
2021/11/04 02:40:07;;;;;;;27.15;15.00;;;;;;;16.41;100.00;100210.31;4938707;29;20438;-59
2021/11/04 02:42:32;;;;;;;24.35;15.20;;;;;;;16.23;100.00;100216.00;4938480;29;20063;-56
2021/11/04 02:44:58;;;;;;;22.38;14.65;;;;;;;16.40;100.00;100211.41;4938441;29;20477;-59
2021/11/04 02:47:24;;;;;;;26.30;15.95;;;;;;;16.42;100.00;100213.81;4938571;29;20122;-59
2021/11/04 02:49:51;;;;;;;25.88;16.10;;;;;;;16.22;100.00;100206.28;4938671;29;20044;-59
2021/11/04 02:52:17;;;;;;;25.25;14.82;;;;;;;16.32;100.00;100201.84;4922019;29;20102;-59
2021/11/04 02:54:59;;;;;;;27.20;15.35;;;;;;;16.15;100.00;100195.66;4937982;29;20490;-59
2021/11/04 02:57:25;;;;;;;24.73;14.75;;;;;;;16.34;100.00;100206.97;4939071;29;20050;-56
2021/11/04 02:59:52;;;;;;;21.58;13.88;;;;;;;16.45;100.00;100205.22;4938654;29;20422;-55
2021/11/04 03:02:18;;;;;;;;;;;;;;;16.32;100.00;100206.41;4939066;29;20036;-58
2021/11/04 03:04:43;;;;;;;26.27;16.00;;;;;;;16.24;100.00;100214.94;4938529;29;20270;-58
2021/11/04 03:07:09;;;;;;;28.33;16.25;;;;;;;16.29;100.00;100217.72;4937675;29;20047;-59
2021/11/04 03:09:34;;;;;;;27.33;15.52;;;;;;;16.15;100.00;100206.47;4937028;29;20044;-59
2021/11/04 03:12:01;;;;;;;30.03;17.03;;;;;;;15.77;100.00;100206.16;4937863;29;20047;-58
2021/11/04 03:14:27;;;;;;;28.42;16.50;;;;;;;16.03;100.00;100211.94;4937926;29;20097;-57
2021/11/04 03:16:54;;;;;;;28.67;15.67;;;;;;;16.35;100.00;100211.31;4938471;29;20123;-54
2021/11/04 03:19:22;;;;;;;25.55;16.30;;;;;;;16.38;100.00;100221.63;4937827;29;20043;-57
2021/11/04 03:21:50;;;;;;;26.48;16.08;;;;;;;16.42;100.00;100217.34;4937993;29;20039;-57
2021/11/04 03:24:18;;;;;;;26.80;16.02;;;;;;;16.03;100.00;100215.47;4937962;29;20423;-56
2021/11/04 03:27:05;;;;;;;28.42;16.63;;;;;;;16.05;100.00;100217.91;4938249;29;20390;-58
2021/11/04 03:29:35;;;;;;;26.95;15.45;;;;;;;16.26;100.00;100224.44;4937450;29;20111;-57
2021/11/04 03:32:04;;;;;;;22.77;14.20;;;;;;;16.31;100.00;100223.66;4917130;29;20131;-58
2021/11/04 03:34:32;;;;;;;28.00;15.73;;;;;;;16.24;100.00;100225.75;4919336;29;20037;-57
2021/11/04 03:37:01;;;;;;;29.33;15.77;;;;;;;16.33;100.00;100225.06;4918501;29;20076;-58
2021/11/04 03:39:26;;;;;;;22.08;13.45;;;;;;;16.28;100.00;100221.47;4917481;29;20570;-59
2021/11/04 03:41:55;;;;;;;26.50;15.68;;;;;;;16.25;100.00;100230.06;4918987;29;20069;-59
2021/11/04 03:44:22;;;;;;;24.67;15.35;;;;;;;16.19;100.00;100248.06;4918690;29;20506;-58
2021/11/04 03:46:48;;;;;;;24.63;15.18;;;;;;;15.74;100.00;100247.88;4918654;29;20075;-58
2021/11/04 03:49:17;;;;;;;25.52;15.73;;;;;;;16.03;100.00;100255.09;4917086;29;20164;-58
2021/11/04 03:51:44;;;;;;;22.27;14.55;;;;;;;16.25;100.00;100251.66;4918443;29;20039;-58
2021/11/04 03:54:13;;;;;;;26.27;15.32;;;;;;;16.01;100.00;100257.22;4918587;29;20048;-60
2021/11/04 03:56:40;;;;;;;24.85;14.65;;;;;;;16.12;100.00;100256.31;4922355;29;20110;-59
2021/11/04 03:59:05;;;;;;;26.73;15.48;;;;;;;16.03;100.00;100260.50;4919805;29;20040;-60
2021/11/04 04:01:32;;;;;;;29.83;16.85;;;;;;;15.86;100.00;100258.59;4918344;29;20192;-57
2021/11/04 04:03:58;;;;;;;28.15;16.75;;;;;;;16.17;100.00;100259.09;4918293;29;20426;-58
2021/11/04 04:06:24;;;;;;;38.35;18.20;;;;;;;16.12;100.00;100259.00;4917958;29;20187;-58
2021/11/04 04:08:52;;;;;;;79.15;18.60;;;;;;;16.12;100.00;100263.59;4917874;29;20127;-59
2021/11/04 04:11:18;;;;;;;66.40;18.35;;;;;;;16.11;100.00;100267.38;4918401;29;20052;-60
2021/11/04 04:13:44;;;;;;;42.47;17.88;;;;;;;16.11;100.00;100265.47;4918235;29;20059;-59
2021/11/04 04:16:09;;;;;;;63.13;18.85;;;;;;;16.19;100.00;100267.75;4917797;29;20491;-58
2021/11/04 04:18:35;;;;;;;120.57;21.52;;;;;;;16.13;100.00;100268.72;4933873;29;20055;-58
2021/11/04 04:21:00;;;;;;;109.53;20.77;;;;;;;16.16;100.00;100262.03;4918691;29;20040;-58
2021/11/04 04:23:26;;;;;;;153.80;23.33;;;;;;;16.13;100.00;100271.44;4932672;29;20119;-58
2021/11/04 04:25:51;;;;;;;118.83;20.07;;;;;;;16.10;100.00;100266.53;4918191;29;20044;-59
2021/11/04 04:28:18;;;;;;;131.07;21.70;;;;;;;16.13;100.00;100271.44;4917725;29;20291;-58
2021/11/04 04:30:44;;;;;;;202.05;24.05;;;;;;;16.12;100.00;100271.69;4917576;29;20570;-60
2021/11/04 04:33:11;;;;;;;72.05;20.73;;;;;;;16.22;100.00;100271.84;4932323;29;20060;-59
2021/11/04 04:35:37;;;;;;;117.28;21.63;;;;;;;16.49;100.00;100280.06;4916756;29;20509;-57
2021/11/04 04:38:02;;;;;;;158.30;20.97;;;;;;;16.24;100.00;100268.91;4917438;29;20048;-58
2021/11/04 04:40:28;;;;;;;162.38;23.38;;;;;;;15.63;100.00;100271.16;4932316;29;20044;-59
2021/11/04 04:42:54;;;;;;;136.73;22.35;;;;;;;16.04;100.00;100272.91;4916142;29;20036;-58
2021/11/04 04:45:20;;;;;;;74.45;19.30;;;;;;;16.22;100.00;100271.03;4917196;29;20044;-58
2021/11/04 04:47:45;;;;;;;164.43;23.70;;;;;;;16.15;100.00;100280.13;4917537;29;20051;-58
2021/11/04 04:50:11;;;;;;;160.17;22.93;;;;;;;16.15;100.00;100276.59;4917189;29;20043;-58
2021/11/04 04:52:37;;;;;;;242.38;27.83;;;;;;;15.92;100.00;100278.41;4917499;29;20091;-59
2021/11/04 04:55:04;;;;;;;179.70;24.67;;;;;;;15.90;100.00;100286.72;4917655;29;20040;-57
2021/11/04 04:57:29;;;;;;;127.82;21.67;;;;;;;15.81;100.00;100281.97;4917160;29;20371;-58
2021/11/04 04:59:57;;;;;;;172.47;24.40;;;;;;;15.75;100.00;100289.94;4917441;29;20114;-60
2021/11/04 05:02:24;;;;;;;212.15;26.13;;;;;;;16.05;100.00;100283.47;4917341;29;20361;-59
2021/11/04 05:04:49;;;;;;;;;;;;;;;16.09;100.00;100285.69;4917800;29;20533;-59
2021/11/04 05:07:16;;;;;;;189.13;23.73;;;;;;;15.65;100.00;100288.94;4917252;29;19954;-59
2021/11/04 05:09:42;;;;;;;280.42;28.15;;;;;;;15.67;100.00;100281.44;4917338;29;20040;-58
2021/11/04 05:12:08;;;;;;;133.50;25.30;;;;;;;15.90;100.00;100281.31;4916588;29;20068;-58
2021/11/04 05:14:34;;;;;;;206.85;27.08;;;;;;;15.91;100.00;100272.19;4931864;29;20135;-59
2021/11/04 05:17:00;;;;;;;183.48;25.58;;;;;;;15.94;100.00;100273.56;4916567;29;20180;-55
2021/11/04 05:19:25;;;;;;;89.70;22.08;;;;;;;16.05;100.00;100258.38;4917332;29;20053;-59
2021/11/04 05:21:51;;;;;;;195.27;27.40;;;;;;;15.95;100.00;100258.22;4917427;29;20044;-58
2021/11/04 05:24:16;;;;;;;120.50;23.57;;;;;;;15.77;100.00;100254.66;4916825;29;20553;-59
2021/11/04 05:26:42;;;;;;;173.23;24.40;;;;;;;15.81;100.00;100257.69;4915643;29;20259;-58
2021/11/04 05:29:08;;;;;;;151.27;23.27;;;;;;;15.26;100.00;100246.50;4917027;29;20121;-57
2021/11/04 05:31:34;;;;;;;157.83;25.03;;;;;;;15.54;100.00;100256.44;4915558;29;20521;-58
2021/11/04 05:34:00;;;;;;;94.95;21.27;;;;;;;15.44;100.00;100253.56;4917139;29;20127;-59
2021/11/04 05:36:26;;;;;;;124.50;24.42;;;;;;;15.38;100.00;100251.84;4931393;29;20043;-59
2021/11/04 05:38:52;;;;;;;;;;;;;;;15.22;100.00;100256.13;4917175;29;20497;-59
2021/11/04 05:41:18;;;;;;;112.17;23.33;;;;;;;15.23;100.00;100261.28;4917308;29;19919;-59
2021/11/04 05:43:44;;;;;;;151.50;25.75;;;;;;;15.29;100.00;100259.47;4917221;29;20082;-59
2021/11/04 05:46:10;;;;;;;92.17;24.47;;;;;;;15.43;100.00;100268.09;4916875;29;20461;-59
2021/11/04 05:48:35;;;;;;;178.15;28.52;;;;;;;14.95;100.00;100270.97;4917361;29;20468;-59
2021/11/04 05:51:01;;;;;;;108.83;24.37;;;;;;;15.29;100.00;100265.72;4916927;29;20121;-59
2021/11/04 05:53:26;;;;;;;119.38;25.35;;;;;;;15.36;100.00;100273.66;4915414;29;20048;-60
2021/11/04 05:55:52;;;;;;;109.43;26.40;;;;;;;15.47;100.00;100282.72;4916359;29;20042;-57
2021/11/04 05:58:18;;;;;;;54.65;23.48;;;;;;;15.39;100.00;100285.81;4916635;29;20047;-58
2021/11/04 06:00:44;;;;;;;129.38;26.95;;;;;;;15.11;100.00;100279.34;4922705;29;20044;-58
2021/11/04 06:03:12;;;;;;;136.68;27.33;;;;;;;14.96;100.00;100282.56;4918525;29;20067;-57
2021/11/04 06:05:41;;;;;;;119.35;25.13;;;;;;;15.05;100.00;100281.94;4917519;29;20040;-58
2021/11/04 06:08:08;;;;;;;65.93;24.75;;;;;;;15.05;100.00;100290.03;4915514;29;20048;-57
2021/11/04 06:10:33;;;;;;;91.72;24.48;;;;;;;15.32;100.00;100289.47;4931828;29;20036;-58
2021/11/04 06:12:59;;;;;;;99.82;27.50;;;;;;;15.40;100.00;100299.03;4916632;29;20127;-59
2021/11/04 06:15:24;;;;;;;93.83;25.30;;;;;;;15.29;100.00;100294.50;4916757;29;20482;-59
2021/11/04 06:17:50;;;;;;;73.67;26.03;;;;;;;15.38;100.00;100301.16;4916707;29;20176;-59
2021/11/04 06:20:16;;;;;;;103.47;26.43;;;;;;;15.05;100.00;100292.72;4916231;29;20050;-59
2021/11/04 06:22:42;;;;;;;119.63;28.90;;;;;;;15.16;100.00;100299.13;4916580;29;20128;-59
2021/11/04 06:25:08;;;;;;;124.80;28.45;;;;;;;14.88;100.00;100302.59;4916125;29;20060;-61
2021/11/04 06:27:34;;;;;;;62.63;25.58;;;;;;;15.21;100.00;100303.78;4916534;29;20052;-58
2021/11/04 06:30:01;;;;;;;59.00;24.45;;;;;;;15.04;100.00;100295.63;4916627;29;20554;-59
2021/11/04 06:32:27;;;;;;;67.45;25.17;;;;;;;14.95;100.00;100303.28;4933012;29;20063;-60
2021/11/04 06:34:52;;;;;;;80.67;25.77;;;;;;;14.88;100.00;100302.59;4937657;29;20052;-59
2021/11/04 06:37:18;;;;;;;146.70;28.73;;;;;;;14.81;100.00;100297.34;4938573;29;20059;-58
2021/11/04 06:39:43;;;;;;;115.53;27.37;;;;;;;14.51;100.00;100294.75;4938753;29;20277;-60
2021/11/04 06:42:09;;;;;;;74.77;26.23;;;;;;;14.44;100.00;100301.09;4938670;29;20174;-59
2021/11/04 06:44:34;;;;;;;107.73;27.20;;;;;;;14.65;100.00;100295.31;4921575;29;20046;-60
2021/11/04 06:47:01;;;;;;;113.50;27.10;;;;;;;14.81;100.00;100291.94;4938358;29;20040;-58
2021/11/04 06:49:31;;;;;;;92.35;25.55;;;;;;;14.54;100.00;100291.63;4938779;29;20061;-58
2021/11/04 06:51:57;;;;;;;85.65;27.42;;;;;;;14.41;100.00;100306.09;4939181;29;20044;-58
2021/11/04 06:54:25;;;;;;;82.00;26.50;;;;;;;14.76;100.00;100316.91;4938455;29;20409;-58
2021/11/04 06:56:51;;;;;;;93.03;28.38;;;;;;;14.54;100.00;100318.53;4939384;29;20040;-60
2021/11/04 06:59:25;;;;;;;71.85;27.30;;;;;;;14.79;100.00;100325.56;4938501;29;20090;-58
2021/11/04 07:01:54;;;;;;;67.43;25.10;;;;;;;14.91;100.00;100329.03;4922203;29;20478;-59
2021/11/04 07:04:27;;;;;;;72.95;25.45;;;;;;;15.15;100.00;100331.69;4938448;29;20478;-59
2021/11/04 07:07:01;;;;;;;48.13;22.30;;;;;;;15.06;100.00;100358.16;4922258;29;20046;-60
2021/11/04 07:09:33;;;;;;;57.90;24.38;;;;;;;15.10;100.00;100343.16;4938219;29;20172;-59
2021/11/04 07:11:59;;;;;;;50.95;24.50;;;;;;;14.91;100.00;100350.56;4921232;29;20044;-60
2021/11/04 07:14:27;;;;;;;48.75;23.17;;;;;;;15.20;100.00;100347.94;4937713;29;20040;-58
2021/11/04 07:16:53;;;;;;;47.53;23.55;;;;;;;15.41;100.00;100359.13;4938176;29;20133;-59
2021/11/04 07:19:20;;;;;;;45.72;23.88;;;;;;;15.57;100.00;100358.38;4936704;29;20178;-59
2021/11/04 07:21:52;;;;;;;43.63;25.00;;;;;;;15.71;100.00;100364.28;4921600;29;20044;-60
2021/11/04 07:24:28;;;;;;;38.92;21.40;;;;;;;16.18;100.00;100357.03;4937558;29;20134;-58
2021/11/04 07:26:56;;;;;;;37.75;21.55;;;;;;;16.50;100.00;100359.16;4921228;29;20633;-59
2021/11/04 07:29:35;;;;;;;34.22;20.10;;;;;;;16.35;100.00;100357.00;4936587;29;20044;-59
2021/11/04 07:32:02;;;;;;;37.22;20.23;;;;;;;16.62;100.00;100351.75;4937609;29;20052;-59
2021/11/04 07:34:29;;;;;;;31.30;18.20;;;;;;;16.36;100.00;100353.25;4937469;29;20044;-58
2021/11/04 07:36:56;;;;;;;32.83;18.52;;;;;;;16.27;100.00;100349.34;4937285;29;20051;-58
2021/11/04 07:39:21;;;;;;;29.13;18.60;;;;;;;16.42;100.00;100349.59;4920684;29;20048;-60
2021/11/04 07:41:46;;;;;;;28.37;16.90;;;;;;;16.57;100.00;100349.00;4936398;29;20047;-59
2021/11/04 07:44:12;;;;;;;25.23;16.33;;;;;;;16.19;100.00;100348.69;4937472;29;20028;-58
2021/11/04 07:46:37;;;;;;;24.17;16.10;;;;;;;16.04;100.00;100345.75;4937767;29;20052;-59
2021/11/04 07:49:03;;;;;;;24.00;15.47;;;;;;;16.12;100.00;100350.72;4935928;29;20290;-60
2021/11/04 07:51:30;;;;;;;26.67;15.90;;;;;;;16.09;100.00;100348.50;4937233;29;20044;-58
2021/11/04 07:53:58;;;;;;;25.23;16.23;;;;;;;16.07;100.00;100352.53;4937701;29;20059;-59
2021/11/04 07:56:24;;;;;;;25.77;16.50;;;;;;;15.96;100.00;100354.25;4937558;29;20092;-59
2021/11/04 07:58:49;;;;;;;23.57;15.63;;;;;;;15.86;100.00;100355.66;4937706;29;20040;-59
2021/11/04 08:01:15;;;;;;;27.90;16.10;;;;;;;15.75;100.00;100365.44;4938822;29;20094;-58
2021/11/04 08:03:43;;;;;;;26.10;16.03;;;;;;;15.86;100.00;100361.03;4939070;29;20040;-59
2021/11/04 08:06:09;;;;;;;22.73;15.25;;;;;;;15.45;100.00;100371.88;4938469;29;20349;-58
2021/11/04 08:08:35;;;;;;;25.92;16.77;;;;;;;14.72;100.00;100368.75;4937329;29;20478;-61
2021/11/04 08:11:01;;;;;;;27.30;17.40;;;;;;;14.98;100.00;100382.75;4937975;29;20066;-61
2021/11/04 08:13:26;;;;;;;32.35;18.55;;;;;;;15.01;100.00;100385.81;4936187;29;20511;-59
2021/11/04 08:15:52;;;;;;;32.10;19.00;;;;;;;15.43;100.00;100379.38;4937888;29;20050;-59
2021/11/04 08:18:18;;;;;;;34.97;20.13;;;;;;;15.52;100.00;100377.13;4936625;29;20834;-59
2021/11/04 08:20:44;;;;;;;34.75;21.70;;;;;;;15.47;100.00;100379.75;4937327;29;20047;-59
2021/11/04 08:23:14;;;;;;;34.70;20.90;;;;;;;15.88;100.00;100374.28;4920054;29;20492;-59
2021/11/04 08:25:42;;;;;;;32.30;19.13;;;;;;;16.07;100.00;100376.81;4936320;29;20039;-59
2021/11/04 08:28:08;;;;;;;29.42;19.55;;;;;;;15.85;100.00;100372.88;4936418;29;20406;-60
2021/11/04 08:30:34;;;;;;;41.63;24.13;;;;;;;15.81;100.00;100374.44;4935912;29;20044;-58
2021/11/04 08:33:00;;;;;;;46.53;24.85;;;;;;;16.11;100.00;100378.75;4936883;29;20062;-59
2021/11/04 08:35:25;;;;;;;39.85;23.48;;;;;;;15.84;100.00;100382.03;4936346;29;20036;-61
2021/11/04 08:37:52;;;;;;;32.50;19.58;;;;;;;15.81;100.00;100382.53;4936575;29;20048;-60
2021/11/04 08:40:18;;;;;;;31.48;20.35;;;;;;;16.23;100.00;100375.19;4919720;29;20496;-58
2021/11/04 08:42:43;;;;;;;40.00;22.50;;;;;;;16.16;100.00;100364.53;4936759;29;20043;-59
2021/11/04 08:45:09;;;;;;;40.10;24.20;;;;;;;16.80;100.00;100378.72;4919384;29;20048;-59
2021/11/04 08:47:35;;;;;;;39.67;23.00;;;;;;;17.30;100.00;100375.13;4935938;29;20126;-58
2021/11/04 08:50:02;;;;;;;31.15;17.85;;;;;;;18.11;91.33;100380.84;4936083;29;20122;-58
2021/11/04 08:52:28;;;;;;;34.70;19.67;;;;;;;18.96;79.91;100379.25;4919149;29;20398;-59
2021/11/04 08:54:55;;;;;;;43.40;22.48;;;;;;;19.02;79.49;100385.53;4936009;29;20279;-60
2021/11/04 08:57:21;;;;;;;48.35;25.15;;;;;;;19.32;77.51;100387.56;4936156;29;20040;-59
2021/11/04 08:59:47;;;;;;;;;;;;;;;18.16;84.69;100391.69;4936904;29;20036;-59
2021/11/04 09:02:14;;;;;;;27.70;15.07;;;;;;;17.88;91.12;100387.38;4935929;29;19925;-59
2021/11/04 09:04:42;;;;;;;24.97;14.20;;;;;;;17.90;90.12;100396.84;4936047;29;20529;-59
2021/11/04 09:07:16;;;;;;;20.20;13.63;;;;;;;17.87;93.51;100397.34;4936382;29;20649;-58
2021/11/04 09:09:42;;;;;;;20.80;13.73;;;;;;;18.13;90.74;100404.94;4919240;29;20290;-59
2021/11/04 09:12:08;;;;;;;22.17;15.17;;;;;;;18.34;89.16;100395.09;4936101;29;20316;-59
2021/11/04 09:14:34;;;;;;;23.65;15.00;;;;;;;18.31;91.53;100401.03;4934782;29;20059;-59
2021/11/04 09:17:01;;;;;;;20.58;14.15;;;;;;;18.62;88.52;100406.66;4918874;29;20133;-59
2021/11/04 09:19:26;;;;;;;23.80;13.88;;;;;;;18.10;91.17;100413.53;4936520;29;20052;-59
2021/11/04 09:21:52;;;;;;;21.67;14.23;;;;;;;17.65;96.57;100404.69;4937366;29;20459;-59
2021/11/04 09:24:18;;;;;;;25.27;14.10;;;;;;;17.48;100.00;100414.50;4919643;29;20050;-59
2021/11/04 09:26:43;;;;;;;23.95;14.73;;;;;;;17.67;100.00;100424.19;4935342;29;20242;-58
2021/11/04 09:29:09;;;;;;;20.13;13.18;;;;;;;17.56;100.00;100417.84;4918808;29;20040;-59
2021/11/04 09:31:34;;;;;;;18.85;12.88;;;;;;;17.69;100.00;100425.56;4935084;29;20066;-58
2021/11/04 09:34:00;;;;;;;19.85;13.55;;;;;;;17.75;100.00;100416.44;4937061;29;20521;-59
2021/11/04 09:36:28;;;;;;;21.02;13.15;;;;;;;17.68;100.00;100418.53;4902963;29;20039;-58
2021/11/04 09:38:55;;;;;;;19.47;13.00;;;;;;;17.81;100.00;100425.44;4936142;29;20047;-58
2021/11/04 09:41:21;;;;;;;26.20;15.52;;;;;;;17.68;100.00;100426.63;4935860;29;20277;-58
2021/11/04 09:43:47;;;;;;;22.77;12.38;;;;;;;17.78;100.00;100423.22;4935887;29;20048;-59
2021/11/04 09:46:13;;;;;;;18.33;12.57;;;;;;;18.20;99.26;100433.41;4935870;29;20043;-59
2021/11/04 09:48:38;;;;;;;20.30;12.70;;;;;;;18.92;93.70;100432.34;4934542;29;20043;-58
2021/11/04 09:51:05;;;;;;;18.17;12.50;;;;;;;19.26;86.09;100429.28;4935928;29;20058;-59
2021/11/04 09:53:31;;;;;;;18.90;11.67;;;;;;;19.57;89.15;100431.31;4936181;29;20431;-59
2021/11/04 09:56:01;;;;;;;17.50;11.27;;;;;;;19.49;84.43;100440.78;4936285;29;20273;-59
2021/11/04 09:58:28;;;;;;;13.87;10.47;;;;;;;20.02;83.85;100432.56;4935832;29;20118;-58
2021/11/04 10:00:53;;;;;;;;;;;;;;;20.84;73.30;100439.09;4936305;29;20364;-57
2021/11/04 10:03:18;;;;;;;14.07;9.53;;;;;;;20.76;73.72;100437.75;4934150;29;20050;-58
2021/11/04 10:05:54;;;;;;;14.00;9.17;;;;;;;20.32;74.20;100438.28;4920143;29;20123;-59
2021/11/04 10:08:32;;;;;;;15.07;9.27;;;;;;;20.70;72.33;100444.25;4939784;29;20395;-58
2021/11/04 10:11:31;;;;;;;12.47;9.30;;;;;;;20.39;77.10;100444.25;4941727;29;20302;-59
2021/11/04 10:14:05;;;;;;;12.50;8.63;;;;;;;19.89;82.70;100454.75;4911671;29;20772;-59
2021/11/04 10:16:33;;;;;;;15.50;9.57;;;;;;;20.16;83.83;100443.69;4938915;29;20423;-59
2021/11/04 10:19:02;;;;;;;14.40;9.70;;;;;;;19.81;79.02;100447.94;4938772;29;20756;-59
2021/11/04 10:21:30;;;;;;;15.13;9.40;;;;;;;19.37;89.46;100451.03;4939987;29;20285;-59
2021/11/04 10:23:57;;;;;;;14.87;10.37;;;;;;;19.59;88.57;100454.38;4943791;29;20322;-59
2021/11/04 10:26:25;;;;;;;20.15;10.88;;;;;;;19.82;85.65;100452.28;4926280;29;20262;-60
2021/11/04 10:28:58;;;;;;;14.80;10.53;;;;;;;19.91;84.97;100452.59;4941241;29;20083;-59
2021/11/04 10:31:24;;;;;;;16.20;10.27;;;;;;;19.63;87.23;100446.53;4941943;29;20269;-59
2021/11/04 10:33:52;;;;;;;15.33;9.67;;;;;;;19.86;88.93;100466.13;4940883;29;20273;-58
2021/11/04 10:36:22;;;;;;;17.33;10.33;;;;;;;20.35;80.87;100463.00;4923748;29;20839;-59
2021/11/04 10:38:55;;;;;;;14.00;10.10;;;;;;;20.13;85.46;100474.09;4923066;29;20278;-59
2021/11/04 10:41:30;;;;;;;15.27;10.23;;;;;;;20.12;89.24;100464.34;4922323;29;20274;-58
2021/11/04 10:44:01;;;;;;;21.57;10.53;;;;;;;20.26;83.40;100452.94;4938455;29;20377;-59
2021/11/04 10:46:27;;;;;;;18.37;11.33;;;;;;;20.25;86.48;100456.72;4939070;29;20258;-59
2021/11/04 10:48:58;;;;;;;17.23;10.57;;;;;;;20.12;86.25;100468.94;4938391;29;20278;-59
2021/11/04 10:51:24;;;;;;;14.77;9.93;;;;;;;20.71;80.38;100464.88;4939124;29;20111;-58
2021/11/04 10:54:03;;;;;;;17.10;9.65;;;;;;;20.75;82.60;100463.25;4938261;29;20297;-61
2021/11/04 10:56:34;;;;;;;13.23;9.30;;;;;;;20.84;80.18;100458.13;4938244;29;20055;-60
2021/11/04 10:59:09;;;;;;;12.90;9.73;;;;;;;21.23;75.22;100462.13;4938126;29;20694;-59
2021/11/04 11:01:36;;;;;;;14.90;9.83;;;;;;;21.13;76.26;100468.41;4938256;29;20288;-60